Time;durP1;ratioP1;P1;durP2;ratioP2;P2;SDS_P1;SDS_P2;PMS_P1;PMS_P2;Temp;Humidity;BMP_temperature;BMP_pressure;BME280_temperature;BME280_humidity;BME280_pressure;Samples;Min_cycle;Max_cycle;Signal;HPM_P1;HPM_P2
2021/06/28 00:00:20;;;;;;;6.15;5.30;;;;;;;20.60;83.24;99614.73;1725037;83;21095;-83
2021/06/28 00:02:47;;;;;;;8.08;5.67;;;;;;;20.59;82.96;99612.56;1724582;83;21075;-82
2021/06/28 00:05:16;;;;;;;7.30;5.35;;;;;;;20.59;83.11;99607.20;1724967;83;21113;-83
2021/06/28 00:07:45;;;;;;;7.65;5.55;;;;;;;20.59;82.93;99609.89;1724389;83;21058;-82
2021/06/28 00:10:18;;;;;;;7.08;5.83;;;;;;;20.63;82.86;99618.47;1724672;81;21768;-83
2021/06/28 00:12:45;;;;;;;;;;;;;;;20.64;82.69;99613.00;1727660;83;21126;-82
2021/06/28 00:15:16;;;;;;;9.43;5.62;;;;;;;20.64;82.51;99610.32;1724201;83;20146;-82
2021/06/28 00:17:45;;;;;;;6.58;5.37;;;;;;;20.62;82.46;99604.25;1725001;83;21043;-83
2021/06/28 00:20:12;;;;;;;5.65;4.92;;;;;;;20.61;82.69;99606.55;1712664;83;21059;-84
2021/06/28 00:22:40;;;;;;;8.73;5.90;;;;;;;20.60;82.71;99614.23;1718879;83;21541;-85
2021/06/28 00:25:09;;;;;;;5.67;4.28;;;;;;;20.57;82.89;99613.18;1718280;83;21297;-78
2021/06/28 00:27:39;;;;;;;5.58;5.00;;;;;;;20.56;82.73;99615.48;1715295;83;21127;-78
2021/06/28 00:30:13;;;;;;;8.30;5.75;;;;;;;20.54;82.74;99613.39;1718761;83;21109;-78
2021/06/28 00:32:40;;;;;;;6.12;4.83;;;;;;;20.53;82.79;99613.89;1706724;83;21123;-79
2021/06/28 00:35:08;;;;;;;7.75;5.15;;;;;;;20.54;82.87;99615.60;1717375;83;21089;-79
2021/06/28 00:37:36;;;;;;;10.25;4.90;;;;;;;20.56;82.55;99618.16;1717453;83;21793;-78
2021/06/28 00:40:06;;;;;;;7.75;5.40;;;;;;;20.55;82.58;99613.77;1717282;82;21098;-78
2021/06/28 00:42:33;;;;;;;7.53;4.60;;;;;;;20.53;82.44;99616.56;1716543;83;21074;-78
2021/06/28 00:45:00;;;;;;;6.87;5.08;;;;;;;20.52;82.38;99626.05;1717385;83;21027;-80
2021/06/28 00:47:27;;;;;;;8.23;5.28;;;;;;;20.52;82.19;99623.38;1716999;83;21035;-80
2021/06/28 00:49:54;;;;;;;7.55;4.90;;;;;;;20.51;82.14;99625.70;1717678;83;21155;-80
2021/06/28 00:52:22;;;;;;;9.18;5.00;;;;;;;20.49;82.08;99623.65;1717667;83;21716;-81
2021/06/28 00:54:49;;;;;;;6.42;5.10;;;;;;;20.48;82.13;99622.81;1718003;83;21090;-82
2021/06/28 00:57:16;;;;;;;7.35;4.40;;;;;;;20.45;82.22;99619.08;1720879;83;20968;-81
2021/06/28 00:59:43;;;;;;;5.78;4.87;;;;;;;20.43;82.26;99625.50;1690082;83;21151;-81
2021/06/28 01:02:10;;;;;;;9.88;4.80;;;;;;;20.41;82.31;99624.81;1695621;83;22129;-82
2021/06/28 01:04:37;;;;;;;6.72;4.85;;;;;;;20.42;82.27;99627.34;1693799;83;21095;-82
2021/06/28 01:07:04;;;;;;;5.58;4.75;;;;;;;20.43;82.17;99630.85;1696984;83;21016;-82
2021/06/28 01:09:31;;;;;;;7.67;4.45;;;;;;;20.44;82.09;99633.91;1699984;83;21071;-86
2021/06/28 01:11:58;;;;;;;5.33;4.78;;;;;;;20.44;82.12;99636.58;1684076;83;21051;-87
2021/06/28 01:14:25;;;;;;;6.90;5.40;;;;;;;20.43;82.10;99631.73;1718519;83;21185;-87
2021/06/28 01:16:52;;;;;;;6.95;5.53;;;;;;;20.45;82.21;99627.09;1718756;83;21048;-87
2021/06/28 01:19:19;;;;;;;6.03;5.08;;;;;;;20.46;82.01;99628.78;1712274;83;21583;-87
2021/06/28 01:21:46;;;;;;;9.40;5.83;;;;;;;20.45;82.00;99634.25;1672106;84;21081;-85
2021/06/28 01:24:13;;;;;;;7.65;5.78;;;;;;;20.43;81.92;99633.53;1679712;83;21092;-87
2021/06/28 01:26:40;;;;;;;8.95;5.87;;;;;;;20.42;82.13;99635.86;1706733;83;21127;-85
2021/06/28 01:29:07;;;;;;;7.62;5.70;;;;;;;20.40;82.09;99632.47;1687045;83;21651;-84
2021/06/28 01:31:33;;;;;;;9.43;5.72;;;;;;;20.38;82.12;99633.08;1696366;83;21077;-82
2021/06/28 01:34:01;;;;;;;7.80;5.20;;;;;;;20.39;82.23;99645.00;1679724;83;21120;-82
2021/06/28 01:36:29;;;;;;;7.03;5.25;;;;;;;20.40;82.69;99645.84;1698468;83;21053;-81
2021/06/28 01:38:56;;;;;;;8.50;5.28;;;;;;;20.38;82.99;99645.12;1709508;83;21756;-81
2021/06/28 01:41:23;;;;;;;6.65;5.60;;;;;;;20.36;83.30;99643.94;1701912;83;21102;-79
2021/06/28 01:43:53;;;;;;;5.30;4.80;;;;;;;20.31;83.08;99636.30;1697380;83;21535;-79
2021/06/28 01:46:20;;;;;;;10.20;5.90;;;;;;;20.26;83.05;99637.16;1686172;83;21527;-83
2021/06/28 01:48:47;;;;;;;7.03;5.22;;;;;;;20.20;83.21;99627.02;1672758;83;21549;-82
2021/06/28 01:51:16;;;;;;;7.15;4.90;;;;;;;20.22;83.33;99633.55;1708082;83;21224;-83
2021/06/28 01:53:44;;;;;;;7.12;5.40;;;;;;;20.20;83.28;99628.34;1684065;83;21049;-83
2021/06/28 01:56:11;;;;;;;6.62;5.47;;;;;;;20.17;83.30;99633.94;1704066;83;21022;-83
2021/06/28 01:58:38;;;;;;;7.83;5.28;;;;;;;20.17;83.17;99635.27;1679167;82;35576;-83
2021/06/28 02:01:06;;;;;;;7.20;5.70;;;;;;;20.17;83.20;99636.61;1679257;83;21047;-81
2021/06/28 02:03:40;;;;;;;14.65;6.35;;;;;;;20.14;83.18;99631.53;1690409;83;21244;-79
2021/06/28 02:06:07;;;;;;;9.00;6.30;;;;;;;20.15;83.16;99637.72;1697465;84;21068;-84
2021/06/28 02:08:35;;;;;;;7.22;6.37;;;;;;;20.13;83.02;99645.89;1684534;83;21097;-78
2021/06/28 02:11:05;;;;;;;7.85;5.90;;;;;;;20.11;83.09;99639.83;1706694;83;21112;-80
2021/06/28 02:13:37;;;;;;;9.75;6.20;;;;;;;20.08;83.18;99645.41;1701771;83;21063;-81
2021/06/28 02:16:04;;;;;;;8.18;6.00;;;;;;;20.08;83.27;99652.09;1693350;83;21134;-81
2021/06/28 02:18:31;;;;;;;8.33;6.33;;;;;;;20.06;83.04;99642.88;1682473;83;21067;-83
2021/06/28 02:20:59;;;;;;;7.58;6.00;;;;;;;20.02;82.89;99637.92;1717077;83;21053;-83
2021/06/28 02:23:30;;;;;;;10.23;5.87;;;;;;;19.99;82.89;99647.52;1717760;83;21089;-83
2021/06/28 02:26:06;;;;;;;8.75;5.55;;;;;;;19.80;82.83;99619.66;1716754;83;21614;-82
2021/06/28 02:28:38;;;;;;;10.03;6.10;;;;;;;19.91;82.84;99649.02;1704633;83;21147;-82
2021/06/28 02:33:21;;;;;;;7.35;5.65;;;;;;;19.89;82.82;99645.61;1789163;79;22719;-83
2021/06/28 02:35:48;;;;;;;6.65;5.17;;;;;;;19.71;82.85;99629.78;1754860;81;21030;-83
2021/06/28 02:38:15;;;;;;;6.17;5.35;;;;;;;19.84;82.76;99652.33;1717089;83;21621;-83
2021/06/28 02:40:42;;;;;;;9.78;6.08;;;;;;;19.83;82.46;99650.63;1707620;83;21617;-83
2021/06/28 02:43:10;;;;;;;7.47;5.97;;;;;;;19.80;82.27;99649.05;1709551;83;21029;-86
2021/06/28 02:45:38;;;;;;;8.10;5.95;;;;;;;19.77;82.36;99650.66;1711627;83;22021;-81
2021/06/28 02:48:06;;;;;;;8.25;5.60;;;;;;;19.77;82.27;99662.68;1708999;83;21017;-83
2021/06/28 02:50:33;;;;;;;10.43;6.45;;;;;;;19.74;82.09;99654.92;1708183;83;21189;-81
2021/06/28 02:53:00;;;;;;;8.75;5.42;;;;;;;19.73;82.01;99661.72;1709749;83;21113;-81
2021/06/28 02:55:28;;;;;;;10.63;5.50;;;;;;;19.69;82.11;99662.45;1715623;82;21071;-80
2021/06/28 02:57:55;;;;;;;8.13;5.75;;;;;;;19.70;82.04;99668.17;1733888;82;21536;-79
2021/06/28 03:00:23;;;;;;;9.48;6.40;;;;;;;19.70;81.96;99664.16;1693547;84;21076;-78
2021/06/28 03:02:49;;;;;;;8.83;5.75;;;;;;;19.66;81.79;99667.53;1682911;84;21106;-80
2021/06/28 03:05:16;;;;;;;9.35;5.70;;;;;;;19.64;81.92;99663.29;1687031;84;21098;-78
2021/06/28 03:07:44;;;;;;;12.35;5.45;;;;;;;19.64;81.87;99664.63;1666399;84;21588;-78
2021/06/28 03:10:13;;;;;;;6.33;5.15;;;;;;;19.66;81.79;99664.02;1688633;84;21052;-81
2021/06/28 03:12:41;;;;;;;7.10;5.00;;;;;;;19.67;81.80;99655.05;1691102;84;21621;-80
2021/06/28 03:15:11;;;;;;;7.20;5.33;;;;;;;19.71;81.75;99661.84;1691894;84;21273;-79
2021/06/28 03:17:38;;;;;;;5.90;5.30;;;;;;;19.77;81.56;99662.68;1689871;84;21077;-79
2021/06/28 03:20:07;;;;;;;9.18;5.75;;;;;;;19.80;81.21;99657.56;1681937;84;21569;-80
2021/06/28 03:22:35;;;;;;;7.15;5.00;;;;;;;19.81;81.29;99664.13;1687790;84;21091;-80
2021/06/28 03:25:02;;;;;;;8.68;5.50;;;;;;;19.81;81.15;99662.80;1683735;84;21046;-80
2021/06/28 03:27:29;;;;;;;7.20;6.37;;;;;;;19.82;81.19;99660.47;1690229;84;21103;-80
2021/06/28 03:29:55;;;;;;;9.00;5.85;;;;;;;19.82;81.08;99657.80;1695139;84;21551;-80
2021/06/28 03:32:23;;;;;;;10.53;6.45;;;;;;;19.80;81.20;99663.75;1685287;84;21058;-79
2021/06/28 03:34:51;;;;;;;6.83;5.87;;;;;;;19.79;81.22;99664.73;1677173;85;21092;-78
2021/06/28 03:37:18;;;;;;;11.25;5.58;;;;;;;19.76;81.33;99663.67;1683143;83;21555;-78
2021/06/28 03:39:45;;;;;;;7.53;5.92;;;;;;;19.72;81.53;99662.22;1682255;85;21138;-77
2021/06/28 03:42:12;;;;;;;7.42;5.55;;;;;;;19.72;81.66;99670.23;1683835;85;21026;-80
2021/06/28 03:44:40;;;;;;;9.18;5.83;;;;;;;19.71;81.63;99675.20;1676961;85;21125;-78
2021/06/28 03:47:07;;;;;;;9.50;6.17;;;;;;;19.69;81.74;99680.69;1683387;85;21092;-78
2021/06/28 03:49:34;;;;;;;10.53;6.20;;;;;;;19.66;81.69;99680.05;1681347;85;21306;-78
2021/06/28 03:52:02;;;;;;;10.30;5.62;;;;;;;19.61;81.92;99682.25;1683887;85;21541;-80
2021/06/28 03:54:29;;;;;;;8.88;5.83;;;;;;;19.58;82.21;99678.02;1675592;85;21035;-80
2021/06/28 03:56:56;;;;;;;10.93;6.10;;;;;;;19.53;82.24;99682.02;1670561;85;21160;-80
2021/06/28 03:59:23;;;;;;;7.20;6.00;;;;;;;19.50;82.30;99681.28;1674375;84;25950;-80
2021/06/28 04:01:50;;;;;;;11.30;5.55;;;;;;;19.46;82.56;99685.20;1671650;85;21135;-82
2021/06/28 04:04:17;;;;;;;8.08;5.87;;;;;;;19.45;82.73;99687.49;1670576;85;21768;-81
2021/06/28 04:06:44;;;;;;;8.88;5.50;;;;;;;19.43;82.62;99685.43;1661567;85;21064;-81
2021/06/28 04:09:12;;;;;;;7.90;5.62;;;;;;;19.43;82.62;99687.26;1644256;85;21132;-78
2021/06/28 04:11:40;;;;;;;6.70;5.37;;;;;;;19.41;82.72;99680.70;1681259;83;21055;-78
2021/06/28 04:14:07;;;;;;;7.05;5.55;;;;;;;19.45;82.50;99691.50;1672868;85;21097;-79
2021/06/28 04:16:36;;;;;;;10.20;6.17;;;;;;;19.46;81.97;99687.87;1648476;86;21720;-82
2021/06/28 04:19:03;;;;;;;8.18;5.87;;;;;;;19.44;81.95;99681.80;1642217;85;21145;-84
2021/06/28 04:21:34;;;;;;;8.20;6.40;;;;;;;19.48;81.77;99679.22;1675647;85;21133;-85
2021/06/28 04:24:04;;;;;;;7.80;6.42;;;;;;;19.52;81.55;99685.17;1675172;85;21002;-82
2021/06/28 04:26:31;;;;;;;6.42;5.60;;;;;;;19.49;81.33;99679.60;1680206;84;21077;-81
2021/06/28 04:28:59;;;;;;;9.20;6.28;;;;;;;19.55;81.07;99682.73;1694873;83;21140;-78
2021/06/28 04:31:29;;;;;;;7.20;6.05;;;;;;;19.55;81.08;99682.73;1660446;86;21091;-77
2021/06/28 04:33:56;;;;;;;8.98;6.17;;;;;;;19.55;81.01;99681.41;1640432;84;21028;-78
2021/06/28 04:36:23;;;;;;;7.17;5.42;;;;;;;19.59;80.83;99682.86;1695636;83;21027;-79
2021/06/28 04:38:50;;;;;;;6.92;6.05;;;;;;;19.61;80.76;99680.42;1697254;83;21350;-88
2021/06/28 04:41:17;;;;;;;7.83;5.75;;;;;;;19.64;80.70;99688.67;1672389;84;21797;-76
2021/06/28 04:43:45;;;;;;;9.48;5.78;;;;;;;19.66;80.64;99688.06;1672513;83;21135;-73
2021/06/28 04:46:12;;;;;;;10.00;5.83;;;;;;;19.66;80.72;99682.72;1692195;83;21564;-71
2021/06/28 04:48:38;;;;;;;7.25;5.37;;;;;;;19.65;80.93;99683.70;1697123;83;21087;-80
2021/06/28 04:51:06;;;;;;;10.25;6.75;;;;;;;19.66;81.25;99681.37;1680202;84;21063;-72
2021/06/28 04:53:33;;;;;;;8.30;5.60;;;;;;;19.69;80.85;99683.82;1671903;85;21103;-75
2021/06/28 04:56:04;;;;;;;8.78;5.78;;;;;;;19.73;81.22;99686.61;1670675;85;21648;-76
2021/06/28 04:58:32;;;;;;;8.43;6.17;;;;;;;19.78;80.08;99688.41;1667830;85;21583;-73
2021/06/28 05:00:59;;;;;;;6.95;5.72;;;;;;;19.85;80.11;99685.62;1641700;87;21092;-76
2021/06/28 05:03:26;;;;;;;7.08;5.80;;;;;;;19.90;79.65;99683.90;1641705;87;21124;-75
2021/06/28 05:05:53;;;;;;;9.10;5.83;;;;;;;19.96;78.96;99697.23;1638098;86;21835;-74
2021/06/28 05:08:20;;;;;;;7.70;5.85;;;;;;;20.01;78.50;99691.00;1638474;87;21181;-75
2021/06/28 05:10:47;;;;;;;7.80;6.20;;;;;;;20.05;78.13;99692.45;1642479;87;21096;-71
2021/06/28 05:13:14;;;;;;;7.85;5.40;;;;;;;20.10;77.76;99693.75;1642466;87;21129;-80
2021/06/28 05:15:42;;;;;;;8.25;6.08;;;;;;;20.19;77.36;99698.81;1640171;86;21060;-72
2021/06/28 05:18:09;;;;;;;7.62;5.15;;;;;;;20.25;76.86;99687.62;1635004;86;21139;-71
2021/06/28 05:20:36;;;;;;;9.65;5.37;;;;;;;20.32;76.33;99691.47;1642233;87;21080;-72
2021/06/28 05:23:03;;;;;;;8.93;5.25;;;;;;;20.41;76.10;99680.98;1639696;87;21096;-72
2021/06/28 05:25:30;;;;;;;7.12;5.80;;;;;;;20.48;75.43;99682.15;1637670;86;21049;-72
2021/06/28 05:27:58;;;;;;;11.88;6.05;;;;;;;20.56;75.32;99685.03;1642934;87;21072;-72
2021/06/28 05:30:26;;;;;;;8.05;5.05;;;;;;;20.65;74.84;99681.56;1637886;87;21171;-71
2021/06/28 05:32:52;;;;;;;7.90;4.95;;;;;;;20.76;74.37;99682.48;1635962;85;21095;-72
2021/06/28 05:35:19;;;;;;;8.55;4.80;;;;;;;20.87;73.39;99682.40;1625669;87;21099;-72
2021/06/28 05:37:46;;;;;;;6.92;5.62;;;;;;;21.02;72.75;99688.23;1634086;87;21307;-72
2021/06/28 05:40:13;;;;;;;6.00;4.60;;;;;;;21.16;71.79;99682.50;1638574;87;21117;-71
2021/06/28 05:42:40;;;;;;;6.50;5.12;;;;;;;21.28;72.18;99683.23;1616591;88;21196;-71
2021/06/28 05:45:09;;;;;;;8.05;5.67;;;;;;;21.42;71.18;99688.27;1640303;87;21068;-71
2021/06/28 05:47:36;;;;;;;8.98;5.65;;;;;;;21.43;70.54;99691.28;1618171;86;21153;-73
2021/06/28 05:50:04;;;;;;;11.93;5.62;;;;;;;21.50;70.82;99688.41;1630836;87;21069;-71
2021/06/28 05:52:33;;;;;;;7.20;5.40;;;;;;;21.64;70.24;99693.03;1612048;88;21607;-71
2021/06/28 05:54:59;;;;;;;6.70;5.22;;;;;;;21.79;70.28;99696.51;1648099;86;21156;-72
2021/06/28 05:57:29;;;;;;;6.35;5.08;;;;;;;21.97;69.89;99688.63;1653126;85;21049;-72
2021/06/28 05:59:56;;;;;;;6.30;5.70;;;;;;;22.12;68.78;99693.56;1665757;83;25411;-72
2021/06/28 06:02:23;;;;;;;12.03;5.30;;;;;;;22.24;68.21;99692.45;1654191;85;21114;-72
2021/06/28 06:04:49;;;;;;;8.93;5.55;;;;;;;22.30;67.68;99693.73;1657081;84;21084;-72
2021/06/28 06:07:16;;;;;;;12.45;5.20;;;;;;;22.37;67.62;99703.73;1658352;84;21108;-71
2021/06/28 06:09:45;;;;;;;6.53;5.00;;;;;;;22.44;67.06;99711.22;1658108;86;21084;-73
2021/06/28 06:12:13;;;;;;;5.97;5.28;;;;;;;22.41;66.85;99713.20;1648790;85;21039;-74
2021/06/28 06:14:41;;;;;;;6.53;5.53;;;;;;;22.40;66.48;99716.02;1682236;83;21133;-73
2021/06/28 06:17:08;;;;;;;6.00;5.10;;;;;;;22.39;66.43;99719.20;1657015;86;21061;-74
2021/06/28 06:19:35;;;;;;;6.33;4.62;;;;;;;22.34;66.48;99722.81;1657613;85;21146;-74
2021/06/28 06:22:02;;;;;;;9.08;5.53;;;;;;;22.27;66.77;99721.69;1663747;84;21107;-74
2021/06/28 06:24:29;;;;;;;11.85;5.40;;;;;;;22.20;67.06;99724.52;1663327;84;21569;-73
2021/06/28 06:26:57;;;;;;;6.20;4.47;;;;;;;22.22;66.36;99730.62;1660659;84;21345;-73
2021/06/28 06:29:25;;;;;;;5.58;4.12;;;;;;;22.26;66.73;99740.09;1657114;86;21005;-74
2021/06/28 06:31:51;;;;;;;7.65;4.92;;;;;;;22.24;66.71;99730.50;1681630;83;21137;-74
2021/06/28 06:34:18;;;;;;;5.58;4.97;;;;;;;22.16;67.00;99721.80;1681960;83;21133;-74
2021/06/28 06:36:45;;;;;;;8.05;4.80;;;;;;;22.16;67.57;99729.84;1658075;86;21106;-73
2021/06/28 06:39:12;;;;;;;6.60;5.10;;;;;;;22.21;67.51;99730.29;1679597;83;22201;-74
2021/06/28 06:41:39;;;;;;;7.37;4.70;;;;;;;22.27;66.85;99731.08;1655669;86;21047;-73
2021/06/28 06:44:06;;;;;;;5.12;4.53;;;;;;;22.28;66.64;99735.94;1676957;83;21122;-74
2021/06/28 06:46:34;;;;;;;8.30;4.45;;;;;;;22.28;66.97;99734.59;1679887;84;21579;-74
2021/06/28 06:49:01;;;;;;;6.17;4.45;;;;;;;22.31;66.68;99735.14;1681781;83;21070;-73
2021/06/28 06:51:29;;;;;;;8.03;4.45;;;;;;;22.34;66.64;99735.38;1665657;85;21167;-74
2021/06/28 06:53:56;;;;;;;5.83;4.35;;;;;;;22.43;66.51;99736.34;1666725;85;21005;-75
2021/06/28 06:56:23;;;;;;;7.20;3.77;;;;;;;22.60;66.24;99735.63;1667226;84;21507;-74
2021/06/28 06:58:50;;;;;;;7.10;3.90;;;;;;;22.80;65.12;99729.23;1670987;85;21591;-74
2021/06/28 07:01:19;;;;;;;6.40;4.35;;;;;;;22.92;64.68;99739.30;1666266;85;21032;-73
2021/06/28 07:03:46;;;;;;;6.95;3.98;;;;;;;23.06;64.15;99742.05;1670499;84;21079;-74
2021/06/28 07:06:13;;;;;;;7.10;4.10;;;;;;;23.13;62.81;99739.12;1670903;84;21080;-75
2021/06/28 07:08:41;;;;;;;6.30;3.75;;;;;;;23.17;63.37;99737.84;1671489;85;21152;-75
2021/06/28 07:11:11;;;;;;;8.08;3.98;;;;;;;23.13;61.21;99741.80;1670673;84;21035;-75
2021/06/28 07:13:40;;;;;;;4.95;3.70;;;;;;;23.10;62.01;99744.80;1671331;85;21099;-76
2021/06/28 07:16:07;;;;;;;11.73;4.62;;;;;;;23.09;61.25;99750.30;1669279;85;21111;-75
2021/06/28 07:18:34;;;;;;;5.87;4.55;;;;;;;23.07;62.31;99747.75;1668484;84;21111;-76
2021/06/28 07:21:03;;;;;;;6.65;4.33;;;;;;;23.07;62.27;99750.44;1667727;86;21133;-76
2021/06/28 07:23:31;;;;;;;5.12;4.28;;;;;;;23.10;63.27;99754.67;1666932;84;21029;-76
2021/06/28 07:25:58;;;;;;;6.83;3.80;;;;;;;23.07;63.66;99751.78;1659216;85;21591;-76
2021/06/28 07:28:25;;;;;;;7.17;4.20;;;;;;;23.00;63.81;99752.02;1669277;85;21104;-75
2021/06/28 07:30:56;;;;;;;6.87;4.20;;;;;;;22.90;64.01;99749.84;1669760;85;21099;-77
2021/06/28 07:33:21;;;;;;;6.40;4.25;;;;;;;22.86;64.59;99754.64;1668678;83;22042;-75
2021/06/28 07:35:51;;;;;;;5.33;4.15;;;;;;;22.86;64.42;99756.48;1664177;86;21068;-74
2021/06/28 07:38:19;;;;;;;6.17;3.80;;;;;;;22.89;64.34;99749.47;1664112;86;21087;-75
2021/06/28 07:40:46;;;;;;;5.75;4.15;;;;;;;22.99;64.01;99746.31;1664055;86;21116;-76
2021/06/28 07:43:13;;;;;;;4.87;3.98;;;;;;;23.13;63.75;99745.00;1663695;86;21135;-76
2021/06/28 07:45:40;;;;;;;4.70;3.72;;;;;;;23.38;62.99;99742.98;1664219;86;21588;-76
2021/06/28 07:48:07;;;;;;;4.25;3.85;;;;;;;23.71;61.28;99737.14;1659040;85;21075;-75
2021/06/28 07:50:34;;;;;;;7.60;3.92;;;;;;;23.95;60.45;99745.52;1663225;86;21035;-75
2021/06/28 07:53:01;;;;;;;7.72;3.95;;;;;;;24.10;58.41;99741.78;1663921;86;21096;-75
2021/06/28 07:55:28;;;;;;;7.42;3.52;;;;;;;24.17;57.86;99742.86;1660277;86;21057;-75
2021/06/28 07:57:55;;;;;;;4.67;3.55;;;;;;;24.23;58.15;99744.11;1659371;86;21557;-76
2021/06/28 08:00:23;;;;;;;5.10;4.15;;;;;;;24.39;57.95;99738.86;1659500;85;21075;-78
2021/06/28 08:02:50;;;;;;;6.97;3.40;;;;;;;24.63;57.64;99736.05;1660792;86;21125;-76
2021/06/28 08:05:17;;;;;;;6.40;3.02;;;;;;;24.93;56.91;99747.36;1658882;86;21121;-75
2021/06/28 08:07:44;;;;;;;8.55;3.62;;;;;;;25.13;55.77;99742.09;1658634;86;22446;-77
2021/06/28 08:10:13;;;;;;;4.50;2.98;;;;;;;25.38;55.04;99750.34;1658891;86;21582;-75
2021/06/28 08:12:44;;;;;;;8.73;3.30;;;;;;;25.69;54.42;99740.67;1658465;86;21130;-76
2021/06/28 08:15:11;;;;;;;4.85;2.67;;;;;;;26.05;53.39;99752.60;1659014;86;21089;-76
2021/06/28 08:17:38;;;;;;;4.40;3.55;;;;;;;26.18;52.93;99752.61;1658804;86;21149;-75
2021/06/28 08:20:07;;;;;;;5.58;3.33;;;;;;;26.13;52.88;99764.73;1660230;86;21029;-77
2021/06/28 08:22:35;;;;;;;6.10;3.90;;;;;;;26.03;53.01;99772.16;1663964;86;21805;-75
2021/06/28 08:25:06;;;;;;;4.37;3.00;;;;;;;25.93;53.41;99764.73;1664112;86;21052;-75
2021/06/28 08:27:34;;;;;;;5.50;3.52;;;;;;;25.82;52.97;99763.65;1663029;85;21060;-77
2021/06/28 08:30:03;;;;;;;5.10;2.92;;;;;;;25.75;53.89;99764.30;1662777;86;21505;-75
2021/06/28 08:32:38;;;;;;;7.23;3.20;;;;;;;25.74;51.19;99763.97;1662092;86;21031;-77
2021/06/28 08:35:07;;;;;;;4.45;3.10;;;;;;;25.88;51.71;99771.97;1646312;85;21637;-76
2021/06/28 08:37:35;;;;;;;6.03;3.00;;;;;;;26.22;50.56;99766.12;1671127;85;21042;-75
2021/06/28 08:40:04;;;;;;;6.37;3.12;;;;;;;26.68;49.66;99757.05;1651791;86;21632;-76
2021/06/28 08:42:30;;;;;;;6.70;2.90;;;;;;;27.07;48.31;99776.06;1671056;85;21136;-75
2021/06/28 08:44:58;;;;;;;7.05;2.92;;;;;;;27.55;47.59;99759.91;1661375;86;21036;-74
2021/06/28 08:47:27;;;;;;;7.40;2.42;;;;;;;27.98;46.66;99765.81;1659282;84;21145;-75
2021/06/28 08:49:53;;;;;;;3.95;2.47;;;;;;;28.31;45.06;99766.42;1678594;85;21098;-75
2021/06/28 08:52:21;;;;;;;8.78;2.67;;;;;;;28.77;45.51;99769.12;1659043;86;21131;-75
2021/06/28 08:54:48;;;;;;;3.02;2.72;;;;;;;29.32;43.43;99762.98;1659936;84;21062;-77
2021/06/28 08:57:15;;;;;;;3.77;2.58;;;;;;;29.66;42.48;99771.06;1653987;86;21220;-75
2021/06/28 08:59:42;;;;;;;3.67;2.72;;;;;;;29.65;42.47;99772.08;1659029;86;21543;-71
2021/06/28 09:02:09;;;;;;;3.90;2.58;;;;;;;29.56;42.21;99767.78;1656880;86;21113;-71
2021/06/28 09:04:36;;;;;;;3.52;2.62;;;;;;;29.44;43.02;99776.39;1653016;86;21038;-70
2021/06/28 09:07:20;;;;;;;3.92;2.70;;;;;;;29.41;43.19;99771.36;1658549;86;21640;-70
2021/06/28 09:09:47;;;;;;;4.10;2.83;;;;;;;29.44;41.59;99765.55;1651453;86;21076;-71
2021/06/28 09:12:15;;;;;;;7.12;3.08;;;;;;;29.41;42.58;99770.00;1670857;85;21125;-70
2021/06/28 09:14:58;;;;;;;4.33;2.70;;;;;;;29.45;42.50;99767.25;1651071;86;21049;-71
2021/06/28 09:17:31;;;;;;;5.10;2.90;;;;;;;29.78;41.93;99762.78;1671034;85;21560;-70
2021/06/28 09:20:15;;;;;;;6.12;2.77;;;;;;;30.26;41.93;99764.48;1658746;86;21163;-71
2021/06/28 09:22:42;;;;;;;6.90;3.95;;;;;;;30.71;41.20;99767.83;1664062;84;21572;-70
2021/06/28 09:25:34;;;;;;;8.63;3.27;;;;;;;31.20;39.63;99763.89;1659271;86;21114;-71
2021/06/28 09:28:01;;;;;;;3.83;2.90;;;;;;;31.03;39.02;99762.84;1639849;86;21088;-71
2021/06/28 09:30:28;;;;;;;5.87;3.10;;;;;;;30.44;39.86;99770.00;1661358;86;21687;-69
2021/06/28 09:33:00;;;;;;;8.70;3.17;;;;;;;30.44;39.86;99770.00;1661069;86;21068;-70
2021/06/28 09:35:36;;;;;;;6.42;2.83;;;;;;;30.39;40.58;99760.20;1648175;86;21141;-71
2021/06/28 09:38:25;;;;;;;4.87;2.83;;;;;;;30.59;38.37;99765.30;1626056;86;21616;-72
2021/06/28 09:40:53;;;;;;;6.58;2.65;;;;;;;30.59;38.37;99765.30;1652051;86;21029;-71
2021/06/28 09:43:25;;;;;;;5.97;2.65;;;;;;;30.20;39.39;99772.01;1675037;85;21039;-71
2021/06/28 09:45:56;;;;;;;5.62;3.00;;;;;;;29.86;40.26;99778.97;1663609;86;21132;-71
2021/06/28 09:48:29;;;;;;;6.85;3.10;;;;;;;29.45;40.98;99774.55;1658524;86;21085;-72
2021/06/28 09:51:33;;;;;;;5.05;2.77;;;;;;;29.05;42.11;99784.25;1658839;86;21137;-71
2021/06/28 09:54:14;;;;;;;6.12;2.70;;;;;;;28.63;43.40;99785.66;1636728;87;21061;-71
2021/06/28 09:56:51;;;;;;;6.40;2.85;;;;;;;28.32;44.30;99786.21;1636914;87;21507;-70
2021/06/28 09:59:32;;;;;;;9.10;3.30;;;;;;;28.15;44.56;99780.91;1637066;87;21079;-70
2021/06/28 10:02:25;;;;;;;;;;;;;;;27.96;46.11;99784.92;1639754;87;21083;-70
2021/06/28 10:05:01;;;;;;;10.88;3.30;;;;;;;27.93;45.59;99781.72;1660538;86;21104;-73
2021/06/28 10:07:39;;;;;;;5.62;2.65;;;;;;;28.03;45.69;99778.30;1663945;85;21147;-73
2021/06/28 10:10:16;;;;;;;8.63;3.45;;;;;;;28.44;45.10;99787.50;1664463;85;21067;-73
2021/06/28 10:13:03;;;;;;;6.80;3.35;;;;;;;28.64;43.81;99788.72;1663917;86;21207;-72
2021/06/28 10:15:34;;;;;;;4.00;3.00;;;;;;;28.71;44.15;99777.97;1664369;86;21067;-74
2021/06/28 10:18:03;;;;;;;13.32;3.65;;;;;;;28.73;43.99;99779.98;1662124;85;21109;-72
2021/06/28 10:20:32;;;;;;;10.25;3.15;;;;;;;28.75;43.57;99783.88;1661942;86;21040;-72
2021/06/28 10:22:59;;;;;;;5.22;3.52;;;;;;;28.71;43.55;99775.78;1664330;86;21065;-73
2021/06/28 10:25:28;;;;;;;5.60;2.65;;;;;;;28.60;43.72;99778.43;1664152;85;21112;-72
2021/06/28 10:27:56;;;;;;;5.83;2.95;;;;;;;28.54;44.13;99781.86;1662807;85;21085;-74
2021/06/28 10:30:27;;;;;;;5.85;2.75;;;;;;;28.54;44.48;99785.40;1663171;85;21109;-74
2021/06/28 10:33:08;;;;;;;3.77;2.60;;;;;;;28.45;44.22;99779.17;1662563;86;21022;-73
2021/06/28 10:35:38;;;;;;;5.42;3.20;;;;;;;28.49;44.58;99798.66;1662374;84;21064;-73
2021/06/28 10:38:09;;;;;;;7.75;3.02;;;;;;;28.48;44.35;99794.24;1662891;85;21060;-74
2021/06/28 10:40:54;;;;;;;6.05;3.20;;;;;;;28.54;43.34;99805.72;1663588;86;21368;-72
2021/06/28 10:43:34;;;;;;;4.25;2.98;;;;;;;28.81;42.47;99799.41;1637045;87;21899;-73
2021/06/28 10:46:04;;;;;;;4.33;3.10;;;;;;;29.20;42.07;99807.88;1651633;86;21104;-73
2021/06/28 10:48:44;;;;;;;4.10;3.00;;;;;;;29.53;40.94;99800.20;1661102;86;21109;-71
2021/06/28 10:51:11;;;;;;;5.08;2.92;;;;;;;29.57;40.68;99802.04;1637798;86;21066;-72
2021/06/28 10:53:57;;;;;;;5.97;2.90;;;;;;;29.47;41.17;99796.39;1661745;86;21040;-73
2021/06/28 10:56:36;;;;;;;4.42;2.87;;;;;;;29.24;41.82;99807.81;1658318;86;21150;-74
2021/06/28 10:59:09;;;;;;;6.00;3.60;;;;;;;29.02;42.78;99802.25;1650114;84;21112;-73
2021/06/28 11:01:45;;;;;;;4.85;3.20;;;;;;;28.91;43.26;99809.47;1654472;84;21040;-71
2021/06/28 11:04:18;;;;;;;4.72;3.65;;;;;;;28.84;43.57;99803.09;1644921;84;21119;-72
2021/06/28 11:07:03;;;;;;;7.62;4.00;;;;;;;28.85;43.64;99798.86;1651472;84;21606;-73
2021/06/28 11:09:43;;;;;;;5.83;3.10;;;;;;;28.94;42.84;99799.64;1659701;86;22405;-77
2021/06/28 11:12:30;;;;;;;4.92;3.33;;;;;;;29.11;42.96;99796.27;1659096;86;21038;-77
2021/06/28 11:15:17;;;;;;;5.65;3.27;;;;;;;29.22;42.94;99799.05;1662042;86;21087;-79
2021/06/28 11:17:59;;;;;;;9.83;3.55;;;;;;;29.10;42.52;99800.51;1660680;86;21082;-78
2021/06/28 11:20:38;;;;;;;6.37;3.80;;;;;;;29.00;42.46;99800.23;1615083;87;21140;-74
2021/06/28 11:23:18;;;;;;;6.28;3.40;;;;;;;28.88;41.81;99808.48;1614496;88;21927;-81
2021/06/28 11:25:56;;;;;;;5.83;2.62;;;;;;;28.73;41.69;99796.77;1614578;88;21291;-80
2021/06/28 11:28:37;;;;;;;6.08;2.62;;;;;;;28.56;42.18;99800.96;1662233;85;21069;-83
2021/06/28 11:31:08;;;;;;;7.87;3.08;;;;;;;28.41;43.01;99795.95;1671325;85;21057;-81
2021/06/28 11:33:49;;;;;;;12.13;2.85;;;;;;;28.41;42.55;99795.95;1618316;88;21034;-80
2021/06/28 11:36:34;;;;;;;5.75;3.15;;;;;;;28.44;41.87;99784.78;1662806;84;21134;-82
2021/06/28 11:39:24;;;;;;;8.95;2.77;;;;;;;28.48;40.97;99783.41;1670760;86;21060;-82
2021/06/28 11:42:26;;;;;;;7.87;3.10;;;;;;;28.63;41.12;99784.31;1656055;86;21037;-83
2021/06/28 11:45:01;;;;;;;5.70;2.87;;;;;;;28.81;40.22;99783.16;1664681;84;21073;-84
2021/06/28 11:48:00;;;;;;;7.30;2.60;;;;;;;28.95;40.48;99779.63;1652419;86;21060;-81